Terminal Aerodrome Forecast
Issued by NWS

Home | Current Version | Previous Version | Text Only | Print | Product List | Glossary On
Versions: 1 2 3 4 5 6 7 8 9 10 11 12 13 14 15 16 17 18 19 20 21 22
258
FTUS43 KBIS 292327
TAFJMS
TAF
KJMS 292327Z 3000/3024 18007KT P6SM FEW070 SCT100
     FM300300 15004KT P6SM BKN050
     FM300800 14005KT P6SM VCTS BKN050CB
     FM301100 14005KT P6SM BKN060
     FM301500 18007KT P6SM SCT060
     FM302200 16011G17KT P6SM SCT070=

USA.gov is the U.S. government's official web portal to all federal, state and local government web resources and services.